Time;durP1;ratioP1;P1;durP2;ratioP2;P2;SDS_P1;SDS_P2;PMS_P1;PMS_P2;Temp;Humidity;BMP_temperature;BMP_pressure;BME280_temperature;BME280_humidity;BME280_pressure;Samples;Min_cycle;Max_cycle;Signal;HPM_P1;HPM_P2
2023/10/03 00:00:24;;;;;;;;;;;17.50;99.90;;;;;;4934091;28;20820;-89
2023/10/03 00:02:57;;;;;;;35.40;14.73;;;17.40;99.90;;;;;;4934160;29;19918;-89
2023/10/03 00:05:24;;;;;;;41.30;15.68;;;17.40;99.90;;;;;;4935052;29;20074;-89
2023/10/03 00:07:53;;;;;;;40.80;16.63;;;17.40;99.90;;;;;;4950840;29;20488;-90
2023/10/03 00:10:19;;;;;;;35.25;16.80;;;17.40;99.90;;;;;;4938946;29;20020;-89
2023/10/03 00:12:51;;;;;;;39.65;15.27;;;17.40;99.90;;;;;;4931406;29;20036;-88
2023/10/03 00:15:17;;;;;;;39.45;17.95;;;17.50;99.90;;;;;;4950808;29;20034;-89
2023/10/03 00:17:44;;;;;;;38.90;17.83;;;17.50;99.90;;;;;;4949213;29;20052;-88
2023/10/03 00:20:11;;;;;;;36.85;16.63;;;17.50;99.90;;;;;;4951790;28;20079;-89
2023/10/03 00:22:38;;;;;;;35.38;15.65;;;17.50;99.90;;;;;;4934364;28;20077;-89
2023/10/03 00:25:07;;;;;;;35.72;15.98;;;17.50;99.90;;;;;;4943879;29;20027;-89
2023/10/03 00:27:35;;;;;;;37.15;16.95;;;17.50;99.90;;;;;;4950489;29;20035;-88
2023/10/03 00:30:01;;;;;;;41.58;16.75;;;17.60;99.90;;;;;;4946262;28;20033;-89
2023/10/03 00:32:27;;;;;;;42.50;17.10;;;17.60;99.90;;;;;;4926167;29;20034;-89
2023/10/03 00:34:52;;;;;;;39.60;17.40;;;17.60;99.90;;;;;;4930012;28;20112;-88
2023/10/03 00:37:18;;;;;;;40.95;16.83;;;17.60;99.90;;;;;;4941735;29;20035;-88
2023/10/03 00:39:43;;;;;;;39.05;17.00;;;17.60;99.90;;;;;;4933925;29;20019;-88
2023/10/03 00:42:10;;;;;;;40.53;17.73;;;17.60;99.90;;;;;;4934639;28;20123;-89
2023/10/03 00:44:37;;;;;;;39.28;18.73;;;17.60;99.90;;;;;;4934706;29;20497;-88
2023/10/03 00:47:07;;;;;;;45.80;17.98;;;17.60;99.90;;;;;;4950478;29;20054;-88
2023/10/03 00:49:35;;;;;;;40.60;17.13;;;17.60;99.90;;;;;;4947079;29;20024;-89
2023/10/03 00:52:05;;;;;;;44.13;18.48;;;17.60;99.90;;;;;;4959357;28;20492;-89
2023/10/03 00:54:32;;;;;;;41.53;17.83;;;17.50;99.90;;;;;;4930990;29;20437;-87
2023/10/03 00:56:57;;;;;;;43.30;18.27;;;17.50;99.90;;;;;;4949581;28;20091;-88
2023/10/03 00:59:23;;;;;;;39.45;17.63;;;17.60;99.90;;;;;;4933442;29;20024;-87
2023/10/03 01:01:49;;;;;;;41.67;16.85;;;17.60;99.90;;;;;;4933824;29;20034;-87
2023/10/03 01:04:19;;;;;;;45.45;19.20;;;17.70;99.90;;;;;;4950212;29;20469;-88
2023/10/03 01:06:47;;;;;;;41.95;17.17;;;17.80;99.90;;;;;;4950089;29;20032;-88
2023/10/03 01:09:20;;;;;;;38.47;17.17;;;17.80;99.90;;;;;;4948826;29;20071;-88
2023/10/03 01:11:49;;;;;;;42.60;18.00;;;17.90;99.90;;;;;;4950571;29;20031;-88
2023/10/03 01:14:16;;;;;;;42.33;17.33;;;17.90;99.90;;;;;;4934682;29;20381;-88
2023/10/03 01:16:41;;;;;;;41.15;17.75;;;17.90;99.90;;;;;;4952541;28;20079;-89
2023/10/03 01:21:41;;;;;;;38.47;16.92;;;18.00;99.90;;;;;;4920551;29;20032;-87
2023/10/03 01:24:09;;;;;;;40.95;17.17;;;18.10;99.90;;;;;;4945609;29;20063;-88
2023/10/03 01:26:35;;;;;;;37.95;16.70;;;18.10;99.90;;;;;;4937582;29;20102;-87
2023/10/03 01:29:00;;;;;;;40.47;17.05;;;18.10;99.90;;;;;;4952162;29;20040;-88
2023/10/03 01:31:27;;;;;;;40.20;17.23;;;18.10;99.90;;;;;;4952572;28;20114;-88
2023/10/03 01:33:52;;;;;;;37.70;17.00;;;18.10;99.90;;;;;;4937091;29;20042;-87
2023/10/03 01:36:19;;;;;;;36.90;16.65;;;18.10;99.90;;;;;;4934324;28;20024;-88
2023/10/03 01:38:45;;;;;;;44.35;18.75;;;18.10;99.90;;;;;;4943968;29;20079;-88
2023/10/03 01:41:12;;;;;;;40.67;17.50;;;18.20;99.90;;;;;;4937459;29;20558;-88
2023/10/03 01:43:43;;;;;;;36.80;16.55;;;18.10;99.90;;;;;;4935448;28;20039;-88
2023/10/03 01:46:12;;;;;;;45.10;17.52;;;18.10;99.90;;;;;;4948460;28;20036;-89
2023/10/03 01:48:38;;;;;;;44.63;17.88;;;18.10;99.90;;;;;;4937475;29;20110;-88
2023/10/03 01:51:04;;;;;;;40.58;18.42;;;18.00;99.90;;;;;;4950430;29;20028;-88
2023/10/03 01:53:30;;;;;;;37.35;16.25;;;18.00;99.90;;;;;;4942265;29;20058;-87
2023/10/03 01:55:56;;;;;;;38.95;17.80;;;18.00;99.90;;;;;;4953136;29;20055;-87
2023/10/03 01:58:24;;;;;;;40.42;17.08;;;17.90;99.90;;;;;;4949723;29;20070;-88
2023/10/03 02:00:50;;;;;;;40.97;17.77;;;17.90;99.90;;;;;;4949133;28;20106;-88
2023/10/03 02:03:18;;;;;;;39.88;17.77;;;17.80;99.90;;;;;;4935555;28;20063;-88
2023/10/03 02:05:44;;;;;;;44.42;18.67;;;17.80;99.90;;;;;;4934373;29;20020;-88
2023/10/03 02:08:16;;;;;;;41.08;17.23;;;17.80;99.90;;;;;;4944450;29;20115;-88
2023/10/03 02:10:46;;;;;;;36.08;16.95;;;17.80;99.90;;;;;;4946292;29;20461;-88
2023/10/03 02:13:17;;;;;;;38.92;17.45;;;17.80;99.90;;;;;;4934067;29;20532;-88
2023/10/03 02:15:44;;;;;;;40.60;17.25;;;17.80;99.90;;;;;;4950753;29;20504;-88
2023/10/03 02:18:10;;;;;;;38.67;16.55;;;17.80;99.90;;;;;;4936207;29;20043;-88
2023/10/03 02:20:59;;;;;;;40.90;17.55;;;17.80;99.90;;;;;;4948286;28;20056;-88
2023/10/03 02:23:26;;;;;;;37.78;16.02;;;17.90;99.90;;;;;;4934260;29;20036;-88
2023/10/03 02:26:06;;;;;;;40.85;17.42;;;17.80;99.90;;;;;;4936650;29;20067;-87
2023/10/03 02:28:32;;;;;;;43.33;16.77;;;17.80;99.90;;;;;;4930353;29;20036;-89
2023/10/03 02:30:59;;;;;;;35.10;15.63;;;17.80;99.90;;;;;;4926419;29;20025;-88
2023/10/03 02:33:24;;;;;;;39.83;17.13;;;17.80;99.90;;;;;;4943236;29;20035;-89
2023/10/03 02:35:50;;;;;;;36.20;16.05;;;17.80;99.90;;;;;;4932576;29;20031;-88
2023/10/03 02:38:37;;;;;;;37.40;15.93;;;17.90;99.90;;;;;;4935930;28;20028;-89
2023/10/03 02:41:06;;;;;;;37.55;15.70;;;17.80;99.90;;;;;;4935691;29;20036;-88
2023/10/03 02:43:34;;;;;;;39.22;16.80;;;17.80;99.90;;;;;;4937514;29;20188;-89
2023/10/03 02:46:03;;;;;;;34.95;15.88;;;17.80;99.90;;;;;;4936961;29;20032;-88
2023/10/03 02:48:29;;;;;;;35.97;15.57;;;17.90;99.90;;;;;;4936007;29;20039;-88
2023/10/03 02:50:55;;;;;;;38.45;16.40;;;17.90;99.90;;;;;;4933450;29;20596;-88
2023/10/03 02:53:21;;;;;;;35.47;14.27;;;18.00;99.90;;;;;;4934999;29;20047;-88
2023/10/03 02:55:48;;;;;;;34.72;14.77;;;18.10;99.90;;;;;;4935300;29;20567;-87
2023/10/03 02:58:14;;;;;;;32.00;13.85;;;18.10;99.90;;;;;;4951616;29;20043;-89
2023/10/03 03:00:41;;;;;;;34.65;14.40;;;18.20;99.90;;;;;;4935063;29;20106;-88
2023/10/03 03:03:09;;;;;;;36.67;14.80;;;18.40;99.90;;;;;;4934787;29;20044;-89
2023/10/03 03:05:37;;;;;;;35.10;15.23;;;18.50;99.90;;;;;;4927677;29;20032;-88
2023/10/03 03:08:40;;;;;;;36.30;14.93;;;18.60;99.90;;;;;;4934739;29;20107;-89
2023/10/03 03:11:00;;;;;;;32.20;14.82;;;18.70;99.90;;;;;;4930175;29;20074;-88
2023/10/03 03:13:33;;;;;;;32.65;14.55;;;18.70;99.90;;;;;;4935859;29;20028;-88
2023/10/03 03:16:00;;;;;;;36.15;15.13;;;18.70;99.90;;;;;;4935184;29;20059;-89
2023/10/03 03:18:30;;;;;;;36.65;15.45;;;18.70;99.90;;;;;;4950929;28;20054;-88
2023/10/03 03:20:58;;;;;;;34.92;14.90;;;18.70;99.90;;;;;;4926004;29;20508;-89
2023/10/03 03:23:29;;;;;;;34.08;14.50;;;18.70;99.90;;;;;;4949605;29;20079;-87
2023/10/03 03:26:03;;;;;;;33.05;13.85;;;18.70;99.90;;;;;;4945679;29;20035;-88
2023/10/03 03:28:28;;;;;;;35.60;14.73;;;18.70;99.90;;;;;;4942404;29;20493;-89
2023/10/03 03:30:58;;;;;;;34.95;13.00;;;18.70;99.90;;;;;;4934045;29;20063;-87
2023/10/03 03:33:27;;;;;;;30.77;13.52;;;18.80;99.90;;;;;;4930258;29;20043;-87
2023/10/03 03:35:54;;;;;;;34.13;13.15;;;18.80;99.90;;;;;;4931112;29;20039;-88
2023/10/03 03:38:20;;;;;;;30.05;13.13;;;18.80;99.90;;;;;;4946690;29;20031;-88
2023/10/03 03:40:46;;;;;;;30.10;12.40;;;18.80;99.90;;;;;;4934671;29;20016;-88
2023/10/03 03:43:15;;;;;;;31.85;12.90;;;18.80;99.90;;;;;;4935279;29;20392;-89
2023/10/03 03:45:40;;;;;;;30.77;13.25;;;18.90;99.90;;;;;;4932553;29;20118;-88
2023/10/03 03:48:06;;;;;;;25.73;12.23;;;18.90;99.90;;;;;;4934403;29;20159;-88
2023/10/03 03:50:32;;;;;;;26.63;12.05;;;18.90;99.90;;;;;;4934834;28;20039;-88
2023/10/03 03:53:02;;;;;;;30.45;12.73;;;18.90;99.90;;;;;;4932370;29;20063;-88
2023/10/03 03:55:29;;;;;;;27.88;11.93;;;19.00;99.90;;;;;;4935040;28;20035;-88
2023/10/03 03:57:56;;;;;;;28.00;12.10;;;19.00;99.90;;;;;;4935997;29;20036;-88
2023/10/03 04:00:28;;;;;;;25.73;10.88;;;19.00;99.90;;;;;;4947716;28;20023;-88
2023/10/03 04:02:57;;;;;;;27.05;11.10;;;19.10;99.90;;;;;;4934802;29;20028;-88
2023/10/03 04:05:25;;;;;;;28.83;12.20;;;19.10;99.90;;;;;;4934115;29;20042;-89
2023/10/03 04:07:51;;;;;;;28.83;11.25;;;19.10;99.90;;;;;;4929800;29;20043;-88
2023/10/03 04:10:17;;;;;;;27.73;11.23;;;19.10;99.90;;;;;;4933887;29;20477;-88
2023/10/03 04:12:43;;;;;;;25.67;11.25;;;19.20;99.90;;;;;;4924625;29;20110;-88
2023/10/03 04:15:18;;;;;;;30.05;11.38;;;19.20;99.90;;;;;;4920606;29;20114;-88
2023/10/03 04:17:44;;;;;;;23.35;10.20;;;19.20;99.90;;;;;;4931789;29;20063;-88
2023/10/03 04:22:51;;;;;;;23.67;10.52;;;19.30;99.90;;;;;;4934443;29;20114;-87
2023/10/03 04:25:21;;;;;;;25.00;10.10;;;19.20;99.90;;;;;;4930894;28;20036;-87
2023/10/03 04:27:53;;;;;;;23.58;9.93;;;19.20;99.90;;;;;;4949146;29;20042;-88
2023/10/03 04:30:25;;;;;;;;;;;19.20;99.90;;;;;;4940719;29;20027;-88
2023/10/03 04:32:51;;;;;;;24.92;9.15;;;19.20;99.90;;;;;;4932504;29;19911;-88
2023/10/03 04:35:20;;;;;;;28.85;9.27;;;19.30;99.90;;;;;;4933661;29;20034;-88
2023/10/03 04:37:46;;;;;;;19.60;7.93;;;19.30;99.90;;;;;;4946544;28;20024;-87
2023/10/03 04:40:15;;;;;;;18.55;8.52;;;19.30;99.90;;;;;;4927131;29;20093;-88
2023/10/03 04:42:45;;;;;;;16.27;7.13;;;19.30;99.90;;;;;;4930265;29;20030;-89
2023/10/03 04:45:14;;;;;;;15.82;6.53;;;19.30;99.90;;;;;;4942980;28;20049;-89
2023/10/03 04:47:45;;;;;;;15.48;5.85;;;19.30;99.90;;;;;;4933070;29;20031;-89
2023/10/03 04:50:11;;;;;;;14.75;5.28;;;19.30;99.90;;;;;;4931097;29;20492;-88
2023/10/03 04:52:41;;;;;;;14.68;4.85;;;19.30;99.90;;;;;;4950137;28;20114;-87
2023/10/03 04:55:07;;;;;;;14.27;4.75;;;19.20;99.90;;;;;;4946906;28;20059;-89
2023/10/03 04:57:33;;;;;;;14.13;4.45;;;19.20;99.90;;;;;;4918430;29;20032;-87
2023/10/03 05:00:04;;;;;;;17.65;4.80;;;19.20;99.90;;;;;;4935013;28;20038;-88
2023/10/03 05:02:30;;;;;;;11.55;3.90;;;19.20;99.90;;;;;;4939876;29;20022;-87
2023/10/03 05:04:55;;;;;;;8.88;3.90;;;19.10;99.90;;;;;;4949564;28;20032;-88
2023/10/03 05:07:23;;;;;;;10.23;4.13;;;19.10;99.90;;;;;;4933192;29;20043;-87
2023/10/03 05:09:50;;;;;;;11.95;3.67;;;19.00;99.90;;;;;;4933553;29;20111;-87
2023/10/03 05:12:15;;;;;;;9.70;4.70;;;19.00;99.90;;;;;;4951953;28;20032;-88
2023/10/03 05:14:41;;;;;;;6.70;3.20;;;18.90;99.90;;;;;;4946024;28;20485;-89
2023/10/03 05:17:07;;;;;;;5.55;2.63;;;18.90;99.90;;;;;;4940921;28;20058;-88
2023/10/03 05:19:33;;;;;;;9.25;3.10;;;18.90;99.90;;;;;;4930227;29;20031;-88
2023/10/03 05:21:58;;;;;;;8.50;3.33;;;18.80;99.90;;;;;;4932544;28;20111;-88
2023/10/03 05:24:24;;;;;;;7.10;3.53;;;18.80;99.90;;;;;;4924289;29;20095;-88
2023/10/03 05:26:51;;;;;;;9.23;3.53;;;18.80;99.90;;;;;;4932389;29;20035;-88
2023/10/03 05:29:17;;;;;;;9.75;3.10;;;18.80;99.90;;;;;;4934230;29;20043;-87
2023/10/03 05:31:43;;;;;;;8.98;3.50;;;18.70;99.90;;;;;;4932332;28;20028;-89
2023/10/03 05:34:10;;;;;;;9.75;4.05;;;18.60;99.90;;;;;;4929287;29;20035;-88
2023/10/03 05:36:35;;;;;;;11.73;3.97;;;18.60;99.90;;;;;;4946092;28;20028;-87
2023/10/03 05:39:01;;;;;;;10.77;3.83;;;18.60;99.90;;;;;;4932154;29;20079;-88
2023/10/03 05:41:27;;;;;;;8.13;3.92;;;18.60;99.90;;;;;;4928494;29;20027;-87
2023/10/03 05:43:53;;;;;;;10.18;3.47;;;18.60;99.90;;;;;;4932426;29;20465;-88
2023/10/03 05:46:18;;;;;;;5.22;3.00;;;18.60;99.90;;;;;;4930176;29;20110;-88
2023/10/03 05:48:45;;;;;;;8.02;3.85;;;18.60;99.90;;;;;;4930681;29;20036;-89
2023/10/03 05:51:12;;;;;;;10.05;3.70;;;18.70;99.90;;;;;;4940135;28;20020;-88
2023/10/03 05:53:40;;;;;;;10.32;3.95;;;18.60;99.90;;;;;;4927359;29;20098;-89
2023/10/03 05:56:06;;;;;;;8.07;4.72;;;18.70;99.90;;;;;;4934399;29;20028;-89
2023/10/03 05:58:32;;;;;;;10.18;3.53;;;18.70;99.90;;;;;;4937389;29;20039;-89
2023/10/03 06:00:58;;;;;;;7.57;4.38;;;18.70;99.90;;;;;;4936489;29;20392;-89
2023/10/03 06:03:24;;;;;;;17.73;4.63;;;18.70;99.90;;;;;;4952625;29;20050;-90
2023/10/03 06:05:50;;;;;;;8.32;4.88;;;18.70;99.90;;;;;;4936846;29;20445;-89
2023/10/03 06:08:17;;;;;;;8.40;4.40;;;18.80;99.90;;;;;;4919012;29;20416;-90
2023/10/03 06:10:42;;;;;;;10.60;4.47;;;18.70;99.90;;;;;;4945264;28;20503;-90
2023/10/03 06:13:11;;;;;;;12.63;4.68;;;18.80;99.90;;;;;;4933768;29;20028;-91
2023/10/03 06:15:43;;;;;;;9.68;4.05;;;18.80;99.90;;;;;;4942626;28;20023;-90
2023/10/03 06:18:09;;;;;;;9.90;4.60;;;18.80;99.90;;;;;;4936414;29;20051;-89
2023/10/03 06:20:35;;;;;;;7.38;4.20;;;18.80;99.90;;;;;;4950344;29;20087;-90
2023/10/03 06:23:02;;;;;;;9.98;5.50;;;18.80;99.90;;;;;;4935685;29;20059;-89
2023/10/03 06:25:29;;;;;;;11.50;5.13;;;18.80;99.90;;;;;;4934065;29;20028;-89
2023/10/03 06:27:54;;;;;;;11.32;4.97;;;18.80;99.90;;;;;;4929866;29;20036;-89
2023/10/03 06:30:20;;;;;;;11.98;4.40;;;18.80;99.90;;;;;;4943516;29;20036;-89
2023/10/03 06:32:45;;;;;;;10.32;5.00;;;18.80;99.90;;;;;;4931936;29;20032;-90
2023/10/03 06:35:11;;;;;;;9.23;4.78;;;18.80;99.90;;;;;;4935934;29;20087;-89
2023/10/03 06:37:38;;;;;;;13.55;5.75;;;18.80;99.90;;;;;;4940421;28;20039;-89
2023/10/03 06:40:08;;;;;;;12.35;5.00;;;18.80;99.90;;;;;;4920994;29;20044;-89
2023/10/03 06:42:37;;;;;;;11.40;5.22;;;18.90;99.90;;;;;;4936991;28;20024;-90
2023/10/03 06:45:10;;;;;;;13.70;5.55;;;18.90;99.90;;;;;;4933222;29;20023;-91
2023/10/03 06:47:38;;;;;;;11.52;4.88;;;18.80;99.90;;;;;;4949322;28;20051;-90
2023/10/03 06:50:07;;;;;;;10.65;6.50;;;18.80;99.90;;;;;;4950313;28;20518;-90
2023/10/03 06:52:35;;;;;;;13.27;6.55;;;18.80;99.90;;;;;;4954352;28;20030;-91
2023/10/03 06:55:03;;;;;;;11.40;6.20;;;18.90;99.90;;;;;;4936386;28;20058;-91
2023/10/03 06:57:29;;;;;;;10.93;5.32;;;18.90;99.90;;;;;;4936623;29;20477;-88
2023/10/03 06:59:54;;;;;;;10.40;4.68;;;19.00;99.90;;;;;;4947136;28;20080;-88
2023/10/03 07:02:21;;;;;;;9.80;4.47;;;19.10;99.90;;;;;;4945814;29;20032;-89
2023/10/03 07:04:46;;;;;;;11.63;5.28;;;19.10;99.90;;;;;;4949112;29;20441;-88
2023/10/03 07:07:12;;;;;;;11.00;4.70;;;19.10;99.90;;;;;;4935232;29;20229;-87
2023/10/03 07:09:41;;;;;;;9.35;4.07;;;19.20;99.90;;;;;;4935984;29;20031;-89
2023/10/03 07:12:08;;;;;;;8.73;4.30;;;19.30;99.90;;;;;;4948042;29;20492;-87
2023/10/03 07:14:35;;;;;;;10.48;4.72;;;19.40;99.90;;;;;;4947415;29;20055;-89
2023/10/03 07:17:02;;;;;;;6.05;3.33;;;19.40;99.90;;;;;;4934622;29;20130;-88
2023/10/03 07:19:31;;;;;;;8.93;3.78;;;19.40;99.90;;;;;;4917589;29;20515;-88
2023/10/03 07:21:57;;;;;;;10.05;3.78;;;19.40;99.90;;;;;;4935069;29;20038;-91
2023/10/03 07:24:24;;;;;;;10.50;3.50;;;19.40;99.90;;;;;;4947724;29;20408;-90
2023/10/03 07:26:51;;;;;;;8.25;3.60;;;19.40;99.90;;;;;;4920973;29;20027;-89
2023/10/03 07:29:17;;;;;;;13.07;3.30;;;19.40;99.90;;;;;;4948391;29;20075;-88
2023/10/03 07:31:43;;;;;;;11.43;3.50;;;19.40;99.90;;;;;;4939111;29;20028;-89
2023/10/03 07:34:09;;;;;;;9.73;3.17;;;19.40;99.90;;;;;;4936430;29;20044;-90
2023/10/03 07:36:34;;;;;;;7.82;2.95;;;19.40;99.90;;;;;;4935716;29;20031;-90
2023/10/03 07:39:00;;;;;;;7.95;2.67;;;19.50;99.90;;;;;;4948590;29;20032;-89
2023/10/03 07:41:27;;;;;;;8.48;2.45;;;19.40;99.90;;;;;;4935325;29;20094;-90
2023/10/03 07:43:52;;;;;;;6.75;2.40;;;19.40;99.90;;;;;;4935181;29;20035;-89
2023/10/03 07:46:23;;;;;;;8.15;2.80;;;19.40;99.90;;;;;;4935078;29;20028;-88
2023/10/03 07:48:52;;;;;;;6.55;3.15;;;19.30;99.90;;;;;;4935047;29;20031;-88
2023/10/03 07:51:19;;;;;;;7.47;2.92;;;19.30;99.90;;;;;;4936526;29;20027;-89
2023/10/03 07:53:46;;;;;;;8.10;2.75;;;19.20;99.90;;;;;;4935665;29;20392;-88
2023/10/03 07:56:24;;;;;;;11.48;3.00;;;19.20;99.90;;;;;;4933575;29;20480;-89
2023/10/03 07:58:54;;;;;;;11.40;2.90;;;19.10;99.90;;;;;;4925699;29;20075;-89
2023/10/03 08:01:27;;;;;;;8.85;2.45;;;19.00;99.90;;;;;;4948114;29;20035;-89
2023/10/03 08:03:57;;;;;;;9.75;2.03;;;18.90;99.90;;;;;;4926199;29;20066;-90
2023/10/03 08:06:24;;;;;;;10.00;2.40;;;18.90;99.90;;;;;;4935928;29;20086;-90
2023/10/03 08:08:55;;;;;;;7.68;1.73;;;18.80;99.90;;;;;;4946277;29;20059;-89
2023/10/03 08:11:32;;;;;;;6.65;2.28;;;18.70;99.90;;;;;;4938759;29;20028;-90
2023/10/03 08:13:59;;;;;;;9.48;2.17;;;18.70;99.90;;;;;;4932187;29;21043;-89
2023/10/03 08:16:27;;;;;;;9.70;2.50;;;18.70;99.90;;;;;;4926540;29;20027;-89
2023/10/03 08:18:58;;;;;;;7.63;2.13;;;18.70;99.90;;;;;;4933795;29;20260;-89
2023/10/03 08:21:28;;;;;;;4.45;1.40;;;18.70;99.90;;;;;;4934421;29;20058;-89
2023/10/03 08:23:58;;;;;;;7.47;1.90;;;18.70;99.90;;;;;;4934585;29;20131;-89
2023/10/03 08:26:25;;;;;;;5.72;1.70;;;18.70;99.90;;;;;;4936108;29;20036;-88
2023/10/03 08:28:59;;;;;;;7.63;1.38;;;18.70;99.90;;;;;;4935513;29;20067;-88
2023/10/03 08:31:26;;;;;;;6.05;1.65;;;18.70;99.90;;;;;;4934597;29;20484;-88
2023/10/03 08:33:55;;;;;;;6.25;1.13;;;18.60;99.90;;;;;;4934192;29;20404;-89
2023/10/03 08:36:27;;;;;;;4.45;1.00;;;18.60;99.90;;;;;;4935004;29;20019;-89
2023/10/03 08:38:57;;;;;;;6.53;1.55;;;18.70;99.90;;;;;;4920432;29;20051;-88
2023/10/03 08:41:31;;;;;;;5.55;0.70;;;18.80;99.90;;;;;;4915789;29;20115;-89
2023/10/03 08:44:00;;;;;;;5.50;1.02;;;18.80;99.90;;;;;;4915467;29;20035;-89
2023/10/03 08:46:29;;;;;;;5.57;0.90;;;18.80;99.90;;;;;;4932937;29;20121;-89
2023/10/03 08:49:00;;;;;;;7.63;0.60;;;18.80;99.90;;;;;;4934320;29;20622;-89
2023/10/03 08:51:32;;;;;;;4.03;0.40;;;18.70;99.90;;;;;;4934861;29;20075;-93
2023/10/03 08:54:08;;;;;;;;;;;18.60;99.90;;;;;;4935070;29;20126;-92
2023/10/03 08:56:35;;;;;;;2.28;0.22;;;18.00;99.90;;;;;;4950125;29;19993;-92
2023/10/03 08:59:08;;;;;;;3.25;0.20;;;17.40;99.90;;;;;;4934415;29;20020;-92
2023/10/03 09:01:37;;;;;;;2.90;0.30;;;17.10;99.90;;;;;;4931483;29;20032;-92
2023/10/03 09:04:07;;;;;;;2.45;0.40;;;16.90;99.90;;;;;;4934424;29;20051;-92
2023/10/03 09:06:38;;;;;;;2.35;0.30;;;16.80;99.90;;;;;;4934669;29;20060;-91
2023/10/03 09:09:08;;;;;;;2.55;0.40;;;16.70;99.90;;;;;;4927703;29;20492;-92
2023/10/03 09:11:37;;;;;;;2.97;0.30;;;16.80;99.90;;;;;;4934515;28;20563;-92
2023/10/03 09:14:07;;;;;;;1.65;0.40;;;16.80;99.90;;;;;;4934477;29;20587;-91
2023/10/03 09:16:39;;;;;;;2.58;0.40;;;16.80;99.90;;;;;;4932656;29;20079;-92
2023/10/03 09:19:05;;;;;;;1.75;0.40;;;16.70;99.90;;;;;;4949349;29;20042;-93
2023/10/03 09:21:33;;;;;;;3.72;0.40;;;16.60;99.90;;;;;;4934485;29;20059;-91
2023/10/03 09:24:15;;;;;;;11.65;0.98;;;16.60;99.90;;;;;;4934333;29;20476;-93
2023/10/03 09:26:46;;;;;;;4.95;0.40;;;16.60;99.90;;;;;;4934633;29;20122;-92
2023/10/03 09:29:29;;;;;;;4.40;0.40;;;16.70;99.90;;;;;;4935429;29;20036;-90
2023/10/03 09:31:57;;;;;;;4.57;0.40;;;16.80;99.90;;;;;;4937601;29;20047;-91
2023/10/03 09:34:32;;;;;;;3.00;0.43;;;16.90;99.90;;;;;;4940768;29;20507;-91
2023/10/03 09:37:04;;;;;;;1.75;0.43;;;17.00;99.90;;;;;;4954130;28;20492;-90
2023/10/03 09:39:30;;;;;;;;;;;17.10;99.90;;;;;;4961911;28;20071;-91
2023/10/03 09:41:57;;;;;;;6.68;0.55;;;17.10;99.90;;;;;;4956814;29;19914;-91
2023/10/03 09:44:29;;;;;;;5.65;0.40;;;17.20;99.90;;;;;;4934900;29;20032;-91
2023/10/03 09:47:06;;;;;;;7.03;0.40;;;17.20;99.90;;;;;;4937251;29;20035;-91
2023/10/03 09:49:38;;;;;;;4.97;0.50;;;17.20;99.90;;;;;;4951533;28;20035;-88
2023/10/03 09:52:07;;;;;;;4.07;0.45;;;17.20;99.90;;;;;;4933759;29;20028;-91
2023/10/03 09:54:35;;;;;;;4.25;0.40;;;17.10;99.90;;;;;;4931248;29;20072;-90
2023/10/03 09:57:15;;;;;;;3.97;0.40;;;17.10;99.90;;;;;;4930827;29;20115;-91
2023/10/03 09:59:41;;;;;;;5.10;0.25;;;17.10;99.90;;;;;;4949103;28;20222;-90
2023/10/03 10:02:12;;;;;;;2.25;0.47;;;17.10;99.90;;;;;;4929335;29;20020;-91
2023/10/03 10:04:39;;;;;;;1.90;0.20;;;17.00;99.90;;;;;;4944508;28;20036;-92
2023/10/03 10:07:16;;;;;;;1.88;0.45;;;16.80;99.90;;;;;;4931570;29;20759;-92
2023/10/03 10:10:13;;;;;;;1.88;0.30;;;16.60;99.90;;;;;;4924369;29;20032;-93
2023/10/03 10:13:12;;;;;;;0.93;0.10;;;16.60;99.90;;;;;;4930560;29;20024;-91
2023/10/03 10:16:00;;;;;;;2.50;0.20;;;16.60;99.90;;;;;;4935858;29;20087;-91
2023/10/03 10:18:43;;;;;;;1.05;0.22;;;16.80;99.90;;;;;;4934470;29;20047;-91
2023/10/03 10:21:25;;;;;;;2.65;0.10;;;16.90;99.90;;;;;;4938920;29;20050;-91
2023/10/03 10:24:16;;;;;;;1.05;0.10;;;17.00;99.90;;;;;;4949864;28;20046;-91
2023/10/03 10:26:49;;;;;;;2.08;0.10;;;17.10;99.90;;;;;;4929606;29;20028;-91
2023/10/03 10:29:35;;;;;;;1.17;0.28;;;17.10;99.90;;;;;;4943775;28;20409;-92
2023/10/03 10:32:17;;;;;;;2.22;0.10;;;17.00;99.90;;;;;;4941311;28;20091;-91
2023/10/03 10:34:46;;;;;;;2.90;0.22;;;17.00;99.90;;;;;;4940014;28;20028;-90
2023/10/03 10:37:17;;;;;;;3.10;0.10;;;16.90;99.90;;;;;;4939498;29;20087;-92
2023/10/03 10:39:56;;;;;;;3.33;0.20;;;16.90;99.90;;;;;;4934849;29;20036;-90
2023/10/03 10:42:25;;;;;;;3.50;0.63;;;17.00;99.90;;;;;;4933432;29;20031;-93
2023/10/03 10:45:03;;;;;;;2.17;0.20;;;17.00;99.90;;;;;;4932310;29;20119;-91
2023/10/03 10:47:33;;;;;;;1.88;0.30;;;17.00;99.90;;;;;;4938931;29;20067;-91
2023/10/03 10:50:00;;;;;;;1.45;0.10;;;17.00;99.90;;;;;;4934348;29;20062;-92
2023/10/03 10:52:29;;;;;;;2.90;0.20;;;16.90;99.90;;;;;;4946827;29;20118;-90
2023/10/03 10:54:59;;;;;;;1.25;0.13;;;16.90;99.90;;;;;;4934251;29;20569;-91
2023/10/03 10:57:28;;;;;;;2.25;0.10;;;16.80;99.90;;;;;;4931461;29;20436;-91
2023/10/03 10:59:54;;;;;;;1.27;0.10;;;16.70;99.90;;;;;;4950038;28;20454;-92
2023/10/03 11:02:22;;;;;;;0.40;0.10;;;16.80;99.90;;;;;;4938681;29;20480;-92
2023/10/03 11:04:59;;;;;;;2.15;0.10;;;16.80;99.90;;;;;;4933160;29;20140;-91
2023/10/03 11:07:27;;;;;;;3.33;0.20;;;16.90;99.90;;;;;;4926611;29;20036;-91
2023/10/03 11:09:54;;;;;;;3.00;0.17;;;16.80;99.90;;;;;;4928438;29;20071;-91
2023/10/03 11:12:24;;;;;;;1.45;0.20;;;16.80;99.90;;;;;;4931646;29;20031;-92
2023/10/03 11:14:50;;;;;;;2.28;0.20;;;16.90;99.90;;;;;;4949522;28;20408;-92
2023/10/03 11:17:16;;;;;;;2.70;0.10;;;16.80;99.90;;;;;;4940147;29;20143;-92
2023/10/03 11:19:42;;;;;;;2.75;0.28;;;16.70;99.90;;;;;;4931975;29;20537;-91
2023/10/03 11:22:12;;;;;;;3.22;0.20;;;16.60;99.90;;;;;;4933211;29;20031;-92
2023/10/03 11:24:38;;;;;;;3.13;0.10;;;16.50;99.90;;;;;;4928386;29;20060;-90
2023/10/03 11:27:04;;;;;;;2.67;0.28;;;16.40;99.90;;;;;;4921355;29;20098;-90
2023/10/03 11:29:36;;;;;;;2.58;0.38;;;16.30;99.90;;;;;;4925832;29;20101;-91
2023/10/03 11:32:02;;;;;;;2.97;0.43;;;16.20;99.90;;;;;;4933279;29;20121;-91
2023/10/03 11:34:31;;;;;;;2.92;0.25;;;16.20;99.90;;;;;;4934447;29;20036;-90
2023/10/03 11:36:57;;;;;;;2.60;0.30;;;16.10;99.90;;;;;;4935813;29;20384;-91
2023/10/03 11:39:23;;;;;;;3.03;0.40;;;16.10;99.90;;;;;;4935245;29;20436;-91
2023/10/03 11:41:49;;;;;;;3.30;0.50;;;16.10;99.90;;;;;;4935359;28;20537;-89
2023/10/03 11:44:22;;;;;;;4.47;0.63;;;16.00;99.90;;;;;;4935545;29;20032;-89
2023/10/03 11:46:48;;;;;;;3.75;0.47;;;15.90;99.90;;;;;;4951297;29;20036;-91
2023/10/03 11:49:15;;;;;;;1.30;0.30;;;15.70;99.90;;;;;;4951659;29;20122;-88
2023/10/03 11:51:43;;;;;;;3.90;0.30;;;15.60;99.90;;;;;;4946781;28;20052;-90
2023/10/03 11:54:14;;;;;;;2.28;0.20;;;15.50;99.90;;;;;;4945853;29;20028;-93
2023/10/03 11:56:48;;;;;;;3.35;0.30;;;15.50;99.90;;;;;;4933598;29;20047;-91
2023/10/03 11:59:15;;;;;;;2.35;0.40;;;15.40;99.90;;;;;;4921829;28;20032;-90
2023/10/03 12:01:42;;;;;;;3.45;0.30;;;15.20;99.90;;;;;;4930199;29;20106;-91
2023/10/03 12:04:08;;;;;;;2.33;0.38;;;15.10;99.90;;;;;;4950701;28;20028;-90
2023/10/03 12:06:34;;;;;;;4.70;0.98;;;15.10;99.90;;;;;;4947985;28;20087;-90
2023/10/03 12:08:59;;;;;;;2.50;0.60;;;15.00;99.90;;;;;;4949904;29;20054;-90
2023/10/03 12:11:25;;;;;;;4.28;0.68;;;14.90;99.90;;;;;;4934507;29;20120;-89
2023/10/03 12:13:50;;;;;;;1.85;0.32;;;15.00;99.90;;;;;;4926300;29;20025;-90
2023/10/03 12:16:17;;;;;;;3.85;0.50;;;15.00;99.90;;;;;;4927921;29;20020;-91
2023/10/03 12:18:42;;;;;;;6.78;0.85;;;15.00;99.90;;;;;;4935564;29;20036;-93
2023/10/03 12:21:09;;;;;;;4.25;0.50;;;15.00;99.90;;;;;;4951035;29;20031;-91
2023/10/03 12:23:36;;;;;;;2.38;0.47;;;15.00;99.90;;;;;;4950548;29;20032;-92
2023/10/03 12:26:01;;;;;;;6.28;0.70;;;15.00;99.90;;;;;;4944870;28;20035;-92
2023/10/03 12:28:27;;;;;;;4.88;0.60;;;14.90;99.90;;;;;;4939814;28;20036;-92
2023/10/03 12:30:52;;;;;;;3.33;1.00;;;14.90;99.90;;;;;;4943502;29;20024;-94
2023/10/03 12:33:19;;;;;;;4.05;0.82;;;14.90;99.90;;;;;;4916398;28;20032;-92
2023/10/03 12:35:45;;;;;;;5.03;1.08;;;14.90;99.90;;;;;;4926540;29;20028;-93
2023/10/03 12:38:11;;;;;;;8.50;1.30;;;14.80;99.90;;;;;;4934017;29;20512;-92
2023/10/03 12:40:37;;;;;;;4.25;0.80;;;14.80;99.90;;;;;;4934264;29;20043;-89
2023/10/03 12:43:02;;;;;;;5.43;0.75;;;14.70;99.90;;;;;;4934638;28;20462;-91
2023/10/03 12:45:28;;;;;;;7.93;1.10;;;14.60;99.90;;;;;;4946670;29;20068;-92
2023/10/03 12:47:54;;;;;;;5.28;1.17;;;14.50;99.90;;;;;;4930907;29;20040;-91
2023/10/03 12:50:24;;;;;;;4.18;0.80;;;14.50;99.90;;;;;;4930884;29;20115;-91
2023/10/03 12:52:55;;;;;;;5.57;0.80;;;14.40;99.90;;;;;;4951207;28;20044;-90